Time;durP1;ratioP1;P1;durP2;ratioP2;P2;SDS_P1;SDS_P2;PMS_P1;PMS_P2;Temp;Humidity;BMP_temperature;BMP_pressure;BME280_temperature;BME280_humidity;BME280_pressure;Samples;Min_cycle;Max_cycle;Signal;HPM_P1;HPM_P2
2022/06/11 00:02:02;;;;;;;12.68;8.05;;;;;;;17.29;100.00;100807.73;1628570;87;21154;-83
2022/06/11 00:04:34;;;;;;;9.43;7.37;;;;;;;17.21;100.00;100801.60;1628575;87;21090;-83
2022/06/11 00:07:07;;;;;;;9.60;7.87;;;;;;;17.18;100.00;100802.74;1628536;87;21051;-83
2022/06/11 00:09:36;;;;;;;9.88;8.05;;;;;;;17.17;100.00;100802.41;1628713;87;21035;-83
2022/06/11 00:12:05;;;;;;;13.20;7.83;;;;;;;17.12;100.00;100802.02;1628593;87;21156;-83
2022/06/11 00:14:35;;;;;;;11.12;8.55;;;;;;;17.07;100.00;100801.16;1606145;87;21105;-83
2022/06/11 00:17:06;;;;;;;15.43;8.58;;;;;;;17.01;100.00;100797.36;1602481;89;21088;-83
2022/06/11 00:19:36;;;;;;;13.18;8.40;;;;;;;16.96;100.00;100793.53;1602343;88;21053;-83
2022/06/11 00:22:04;;;;;;;11.03;8.20;;;;;;;16.92;100.00;100790.36;1602927;88;21468;-83
2022/06/11 00:24:31;;;;;;;11.90;7.72;;;;;;;16.93;100.00;100792.05;1602419;89;21111;-84
2022/06/11 00:27:00;;;;;;;11.63;8.00;;;;;;;16.91;100.00;100793.95;1602511;89;21029;-84
2022/06/11 00:29:32;;;;;;;9.80;7.90;;;;;;;16.88;100.00;100797.72;1602321;88;21116;-83
2022/06/11 00:32:01;;;;;;;11.00;7.95;;;;;;;16.92;100.00;100790.83;1603099;88;21077;-84
2022/06/11 00:34:28;;;;;;;11.05;7.58;;;;;;;16.94;100.00;100792.38;1602396;88;21077;-84
2022/06/11 00:36:56;;;;;;;14.07;8.25;;;;;;;16.94;100.00;100796.33;1602508;88;21610;-83
2022/06/11 00:39:28;;;;;;;13.55;7.60;;;;;;;16.94;100.00;100790.23;1602426;88;21038;-87
2022/06/11 00:42:00;;;;;;;13.45;7.40;;;;;;;16.90;100.00;100795.44;1602429;88;21037;-83
2022/06/11 00:44:28;;;;;;;10.90;7.97;;;;;;;16.86;100.00;100793.10;1637524;86;21531;-87
2022/06/11 00:47:04;;;;;;;15.23;7.87;;;;;;;16.84;100.00;100798.18;1615160;87;21603;-83
2022/06/11 00:49:55;;;;;;;16.95;7.92;;;;;;;16.82;100.00;100797.50;1620517;88;21185;-86
2022/06/11 00:52:38;;;;;;;9.70;7.83;;;;;;;16.78;100.00;100793.53;1599078;88;21143;-83
2022/06/11 00:55:31;;;;;;;13.50;8.08;;;;;;;16.76;100.00;100794.17;1547669;89;21131;-83
2022/06/11 00:58:12;;;;;;;12.63;7.65;;;;;;;16.72;100.00;100797.09;1599482;88;21069;-83
2022/06/11 01:00:44;;;;;;;13.75;8.55;;;;;;;16.71;100.00;100805.95;1599551;88;21559;-83
2022/06/11 01:03:17;;;;;;;13.53;8.20;;;;;;;16.71;100.00;100806.45;1595922;88;21223;-83
2022/06/11 01:06:06;;;;;;;14.18;7.95;;;;;;;16.70;100.00;100806.92;1599250;88;21085;-83
2022/06/11 01:08:44;;;;;;;10.40;7.47;;;;;;;16.69;100.00;100803.98;1532077;89;21011;-83
2022/06/11 01:11:57;;;;;;;10.05;8.10;;;;;;;16.72;100.00;100809.42;1596249;88;21535;-83
2022/06/11 01:14:33;;;;;;;10.88;7.95;;;;;;;16.74;100.00;100810.58;1599302;88;21580;-83
2022/06/11 01:17:18;;;;;;;13.28;8.35;;;;;;;16.73;100.00;100808.45;1600728;89;21198;-82
2022/06/11 01:20:14;;;;;;;11.08;8.23;;;;;;;16.76;100.00;100813.89;1601053;88;21477;-83
2022/06/11 01:23:14;;;;;;;12.30;8.70;;;;;;;16.77;100.00;100812.91;1600576;88;21566;-83
2022/06/11 01:26:33;;;;;;;12.13;8.30;;;;;;;16.74;100.00;100811.89;1600779;89;21098;-83
2022/06/11 01:29:21;;;;;;;14.47;8.13;;;;;;;16.64;100.00;100805.41;1600759;88;21045;-83
2022/06/11 01:31:57;;;;;;;13.78;8.85;;;;;;;16.53;100.00;100811.22;1593851;89;21885;-84
2022/06/11 01:34:32;;;;;;;11.85;8.80;;;;;;;16.44;100.00;100812.61;1599082;88;21041;-83
2022/06/11 01:37:10;;;;;;;13.05;8.30;;;;;;;16.34;100.00;100815.30;1596608;89;21120;-86
2022/06/11 01:39:55;;;;;;;12.15;8.60;;;;;;;16.24;100.00;100816.66;1598595;88;21534;-83
2022/06/11 01:42:43;;;;;;;12.35;8.40;;;;;;;16.14;100.00;100811.97;1599685;88;21131;-83
2022/06/11 01:45:27;;;;;;;11.48;8.53;;;;;;;16.06;100.00;100810.88;1626730;88;21169;-83
2022/06/11 01:47:56;;;;;;;11.73;8.35;;;;;;;15.98;100.00;100820.47;1626673;88;21077;-83
2022/06/11 01:50:29;;;;;;;11.33;8.55;;;;;;;15.90;100.00;100815.96;1613727;87;21045;-83
2022/06/11 01:53:14;;;;;;;9.60;8.03;;;;;;;15.87;100.00;100821.49;1599145;88;21564;-83
2022/06/11 01:56:08;;;;;;;12.88;8.25;;;;;;;15.87;100.00;100824.94;1599416;88;21539;-84
2022/06/11 01:59:08;;;;;;;9.98;8.18;;;;;;;15.93;100.00;100823.53;1594798;89;21914;-83
2022/06/11 02:01:49;;;;;;;13.60;8.43;;;;;;;15.99;100.00;100830.82;1598606;88;21204;-83
2022/06/11 02:04:41;;;;;;;8.68;7.67;;;;;;;16.07;100.00;100827.48;1595650;88;21073;-83
2022/06/11 02:07:24;;;;;;;13.80;7.60;;;;;;;16.12;100.00;100827.05;1597185;88;21070;-84
2022/06/11 02:09:57;;;;;;;12.47;7.80;;;;;;;16.19;100.00;100830.73;1594414;88;21084;-83
2022/06/11 02:13:01;;;;;;;11.45;7.62;;;;;;;16.26;100.00;100834.92;1597492;88;21579;-83
2022/06/11 02:15:44;;;;;;;9.73;8.13;;;;;;;16.30;100.00;100832.33;1592545;89;21074;-85
2022/06/11 02:18:17;;;;;;;11.33;8.00;;;;;;;16.34;100.00;100831.89;1593115;90;21070;-83
2022/06/11 02:20:59;;;;;;;12.05;7.80;;;;;;;16.38;100.00;100838.98;1593342;90;21110;-83
2022/06/11 02:23:37;;;;;;;9.00;7.53;;;;;;;16.40;100.00;100840.48;1590837;90;21090;-83
2022/06/11 02:26:09;;;;;;;10.55;7.58;;;;;;;16.42;100.00;100835.57;1589116;90;22035;-83
2022/06/11 02:28:41;;;;;;;10.20;8.15;;;;;;;16.45;100.00;100837.91;1584378;90;21082;-83
2022/06/11 02:31:13;;;;;;;13.58;7.62;;;;;;;16.46;100.00;100839.07;1593193;89;21086;-83
2022/06/11 02:33:42;;;;;;;16.00;7.50;;;;;;;16.47;100.00;100842.05;1593136;89;21054;-83
2022/06/11 02:36:18;;;;;;;14.58;7.28;;;;;;;16.47;100.00;100839.89;1593289;89;21098;-83
2022/06/11 02:38:46;;;;;;;10.10;7.15;;;;;;;16.49;100.00;100848.45;1593593;89;21557;-83
2022/06/11 02:41:22;;;;;;;13.25;7.25;;;;;;;16.51;100.00;100853.09;1593230;90;21039;-83
2022/06/11 02:43:49;;;;;;;11.50;6.95;;;;;;;16.49;100.00;100852.40;1606460;86;21036;-83
2022/06/11 02:49:04;;;;;;;9.25;7.58;;;;;;;16.29;100.00;100849.06;1624455;88;21045;-83
2022/06/11 02:51:32;;;;;;;10.72;7.15;;;;;;;16.20;100.00;100848.97;1598833;88;21187;-83
2022/06/11 02:54:00;;;;;;;8.78;6.67;;;;;;;16.16;100.00;100853.34;1597356;88;21515;-83
2022/06/11 02:56:28;;;;;;;10.20;6.87;;;;;;;16.12;100.00;100852.00;1597585;88;21060;-83
2022/06/11 02:58:56;;;;;;;10.35;7.42;;;;;;;16.12;100.00;100852.81;1597212;88;21149;-83
2022/06/11 03:01:24;;;;;;;10.60;7.00;;;;;;;16.15;100.00;100851.22;1597577;88;21084;-87
2022/06/11 03:03:53;;;;;;;11.38;6.97;;;;;;;16.22;100.00;100849.66;1597213;88;21160;-83
2022/06/11 03:06:24;;;;;;;12.20;7.55;;;;;;;16.29;100.00;100851.22;1597405;88;21053;-83
2022/06/11 03:08:55;;;;;;;7.87;6.78;;;;;;;16.37;100.00;100853.94;1597153;88;21086;-83
2022/06/11 03:11:24;;;;;;;13.43;7.78;;;;;;;16.45;100.00;100847.92;1597514;88;21058;-84
2022/06/11 03:13:53;;;;;;;14.23;7.28;;;;;;;16.55;100.00;100850.48;1597278;88;21046;-83
2022/06/11 03:16:22;;;;;;;11.28;7.17;;;;;;;16.64;100.00;100852.72;1598511;89;21183;-82
2022/06/11 03:18:49;;;;;;;15.03;7.33;;;;;;;16.74;100.00;100844.75;1598382;88;21082;-83
2022/06/11 03:21:18;;;;;;;11.38;7.10;;;;;;;16.83;100.00;100839.41;1598451;88;21114;-83
2022/06/11 03:23:46;;;;;;;11.80;7.33;;;;;;;16.91;100.00;100843.93;1598492;88;21169;-83
2022/06/11 03:26:13;;;;;;;10.80;6.95;;;;;;;17.01;100.00;100847.81;1598744;88;21122;-85
2022/06/11 03:28:41;;;;;;;15.90;7.17;;;;;;;17.13;100.00;100849.25;1598716;88;21157;-86
2022/06/11 03:31:08;;;;;;;11.60;6.95;;;;;;;17.26;100.00;100851.95;1598680;88;21596;-86
2022/06/11 03:33:39;;;;;;;11.78;7.03;;;;;;;17.41;100.00;100852.23;1598556;88;21150;-83
2022/06/11 03:36:10;;;;;;;9.00;6.30;;;;;;;17.54;100.00;100847.37;1598635;88;21063;-86
2022/06/11 03:38:39;;;;;;;8.25;6.72;;;;;;;17.69;100.00;100845.00;1598745;88;21110;-83
2022/06/11 03:41:08;;;;;;;11.55;6.60;;;;;;;17.85;100.00;100846.06;1598910;88;21573;-83
2022/06/11 03:43:35;;;;;;;9.00;7.10;;;;;;;18.00;100.00;100844.98;1611535;86;21105;-83
2022/06/11 03:46:06;;;;;;;9.03;6.53;;;;;;;18.14;100.00;100845.72;1624383;88;21064;-83
2022/06/11 03:48:37;;;;;;;8.30;6.60;;;;;;;18.28;100.00;100845.09;1624817;87;21064;-83
2022/06/11 03:51:06;;;;;;;10.88;6.83;;;;;;;18.45;100.00;100851.73;1604090;88;21682;-86
2022/06/11 03:53:34;;;;;;;15.93;6.45;;;;;;;18.60;100.00;100854.55;1597012;88;21303;-83
2022/06/11 03:56:03;;;;;;;11.45;6.70;;;;;;;18.75;100.00;100858.70;1597156;89;21069;-83
2022/06/11 03:58:32;;;;;;;12.55;6.90;;;;;;;18.89;100.00;100855.91;1597225;88;21041;-84
2022/06/11 04:01:14;;;;;;;24.75;7.15;;;;;;;19.03;100.00;100850.48;1597345;88;21520;-84
2022/06/11 04:03:45;;;;;;;12.15;6.50;;;;;;;19.17;100.00;100853.80;1597422;88;21125;-86
2022/06/11 04:06:16;;;;;;;9.75;6.40;;;;;;;19.30;100.00;100854.61;1600637;89;21236;-83
2022/06/11 04:08:43;;;;;;;9.60;6.22;;;;;;;19.41;100.00;100855.23;1601133;88;21022;-83
2022/06/11 04:11:13;;;;;;;10.35;6.15;;;;;;;19.52;100.00;100853.06;1601305;88;21087;-83
2022/06/11 04:13:42;;;;;;;23.57;7.10;;;;;;;19.65;100.00;100855.69;1605097;87;21102;-84
2022/06/11 04:16:29;;;;;;;18.02;6.90;;;;;;;19.77;100.00;100857.47;1620233;87;21525;-83
2022/06/11 04:19:00;;;;;;;7.95;6.45;;;;;;;19.88;100.00;100857.63;1601163;89;21674;-83
2022/06/11 04:21:28;;;;;;;15.60;6.80;;;;;;;19.98;100.00;100856.94;1601174;89;21134;-84
2022/06/11 04:23:59;;;;;;;13.88;6.83;;;;;;;20.08;100.00;100863.33;1600896;89;21138;-83
2022/06/11 04:26:32;;;;;;;13.25;6.78;;;;;;;20.15;100.00;100868.25;1601175;89;21119;-87
2022/06/11 04:29:00;;;;;;;10.88;6.45;;;;;;;20.23;100.00;100867.41;1600983;89;21096;-83
2022/06/11 04:31:30;;;;;;;13.03;6.95;;;;;;;20.32;100.00;100859.25;1601146;89;21171;-84
2022/06/11 04:33:58;;;;;;;13.93;6.72;;;;;;;20.44;100.00;100861.00;1601120;89;21024;-84
2022/06/11 04:36:28;;;;;;;10.45;6.60;;;;;;;20.58;100.00;100859.91;1601024;89;21091;-83
2022/06/11 04:38:55;;;;;;;10.88;6.83;;;;;;;20.71;100.00;100861.46;1601186;89;21055;-83
2022/06/11 04:41:23;;;;;;;14.63;7.08;;;;;;;20.82;100.00;100860.77;1601105;89;21098;-85
2022/06/11 04:43:51;;;;;;;12.80;7.17;;;;;;;20.92;100.00;100866.66;1617248;86;21167;-84
2022/06/11 04:46:20;;;;;;;14.65;6.87;;;;;;;20.99;100.00;100866.27;1628175;86;20982;-84
2022/06/11 04:48:49;;;;;;;19.42;7.05;;;;;;;21.07;100.00;100863.55;1628647;86;21987;-83
2022/06/11 04:51:16;;;;;;;12.35;6.90;;;;;;;21.17;100.00;100859.31;1606417;86;21764;-84
2022/06/11 04:53:44;;;;;;;13.10;7.33;;;;;;;21.29;100.00;100859.70;1601304;88;21638;-90
2022/06/11 04:56:19;;;;;;;10.82;7.47;;;;;;;21.40;100.00;100864.57;1601521;88;21144;-88
2022/06/11 04:58:46;;;;;;;12.55;8.83;;;;;;;21.51;100.00;100871.76;1601466;89;21049;-84
2022/06/11 05:01:15;;;;;;;13.43;8.55;;;;;;;21.63;100.00;100870.33;1601447;88;21589;-84
2022/06/11 05:03:42;;;;;;;15.60;8.00;;;;;;;21.72;100.00;100873.69;1601320;88;21041;-85
2022/06/11 05:06:15;;;;;;;14.30;7.45;;;;;;;21.83;100.00;100874.57;1599156;88;21064;-85
2022/06/11 05:08:42;;;;;;;12.70;8.55;;;;;;;21.93;100.00;100875.61;1597480;88;21235;-84
2022/06/11 05:11:09;;;;;;;10.72;8.23;;;;;;;22.04;100.00;100882.27;1591120;89;21028;-87
2022/06/11 05:13:39;;;;;;;10.95;7.83;;;;;;;22.18;100.00;100879.28;1578883;89;21045;-87
2022/06/11 05:16:07;;;;;;;10.93;7.90;;;;;;;22.33;100.00;100876.61;1577308;90;21075;-88
2022/06/11 05:18:36;;;;;;;12.13;8.45;;;;;;;22.46;100.00;100882.08;1654352;84;21101;-90
2022/06/11 05:21:05;;;;;;;13.28;7.83;;;;;;;22.55;100.00;100878.82;1664284;84;21138;-85
2022/06/11 05:23:33;;;;;;;11.15;8.28;;;;;;;22.65;100.00;100883.30;1664594;84;21159;-85
2022/06/11 05:26:00;;;;;;;14.43;8.38;;;;;;;22.78;100.00;100888.44;1664340;84;21097;-85
2022/06/11 05:28:31;;;;;;;14.87;8.73;;;;;;;22.86;100.00;100885.66;1664608;85;21096;-83
2022/06/11 05:31:00;;;;;;;15.10;8.50;;;;;;;22.97;100.00;100885.64;1662685;86;21077;-83
2022/06/11 05:33:28;;;;;;;15.55;8.10;;;;;;;23.08;100.00;100889.61;1664471;84;21139;-84
2022/06/11 05:35:56;;;;;;;11.57;8.43;;;;;;;23.19;100.00;100890.46;1664339;85;21006;-84
2022/06/11 05:38:29;;;;;;;11.08;8.10;;;;;;;23.30;100.00;100896.56;1664445;84;21018;-84
2022/06/11 05:40:58;;;;;;;12.30;8.05;;;;;;;23.41;100.00;100894.39;1662326;84;21436;-84
2022/06/11 05:43:26;;;;;;;14.93;8.50;;;;;;;23.57;100.00;100895.42;1668515;84;21119;-88
2022/06/11 05:46:03;;;;;;;14.73;8.70;;;;;;;23.75;100.00;100898.09;1652873;84;21841;-85
2022/06/11 05:48:48;;;;;;;18.45;8.10;;;;;;;23.92;95.05;100900.72;1644081;86;21017;-85
2022/06/11 05:51:20;;;;;;;14.80;8.33;;;;;;;24.09;95.86;100905.23;1631381;87;21110;-84
2022/06/11 05:53:52;;;;;;;12.60;7.83;;;;;;;24.24;86.96;100901.09;1595329;89;21038;-85
2022/06/11 05:56:19;;;;;;;10.45;7.28;;;;;;;24.36;90.60;100899.19;1597881;89;21054;-84
2022/06/11 05:58:51;;;;;;;15.93;7.78;;;;;;;24.49;90.04;100894.42;1597439;89;21171;-84
2022/06/11 06:01:23;;;;;;;10.88;7.00;;;;;;;24.65;90.75;100891.88;1602815;88;21069;-85
2022/06/11 06:03:50;;;;;;;9.28;7.15;;;;;;;24.81;91.35;100896.04;1603050;87;21071;-84
2022/06/11 06:06:17;;;;;;;20.25;8.30;;;;;;;24.97;87.60;100897.47;1609769;87;21058;-85
2022/06/11 06:08:45;;;;;;;9.40;7.55;;;;;;;25.10;85.50;100890.00;1610787;88;21039;-84
2022/06/11 06:11:13;;;;;;;10.53;6.83;;;;;;;25.24;79.93;100889.48;1576511;88;21464;-84
2022/06/11 06:13:46;;;;;;;9.20;7.30;;;;;;;25.36;69.49;100889.16;1618836;87;21540;-84
2022/06/11 06:16:20;;;;;;;10.90;7.20;;;;;;;25.46;68.26;100888.78;1608353;87;21102;-85
2022/06/11 06:18:50;;;;;;;11.10;7.25;;;;;;;25.57;78.01;100887.32;1592143;89;21089;-85
2022/06/11 06:21:21;;;;;;;17.73;7.53;;;;;;;25.72;73.29;100886.56;1618629;87;21094;-84
2022/06/11 06:23:49;;;;;;;12.37;7.00;;;;;;;25.88;71.28;100888.46;1599079;88;21864;-87
2022/06/11 06:26:17;;;;;;;9.45;6.03;;;;;;;26.01;66.95;100887.06;1618662;87;21074;-84
2022/06/11 06:28:45;;;;;;;13.20;5.45;;;;;;;26.11;63.11;100889.34;1602753;89;21093;-86
2022/06/11 06:31:15;;;;;;;10.35;6.10;;;;;;;26.23;58.77;100888.16;1606383;87;21029;-86
2022/06/11 06:33:43;;;;;;;8.03;6.10;;;;;;;26.33;58.71;100889.82;1633885;87;21645;-84
2022/06/11 06:36:12;;;;;;;9.55;6.45;;;;;;;26.45;62.07;100886.80;1633366;86;21162;-84
2022/06/11 06:38:40;;;;;;;9.70;5.90;;;;;;;26.58;58.67;100893.91;1633273;86;21633;-84
2022/06/11 06:41:08;;;;;;;15.38;5.90;;;;;;;26.70;59.29;100886.52;1633452;86;21747;-84
2022/06/11 06:43:36;;;;;;;8.85;5.47;;;;;;;26.81;58.57;100889.03;1630938;87;21002;-84
2022/06/11 06:46:05;;;;;;;11.97;5.72;;;;;;;26.93;58.67;100892.13;1628870;86;21909;-84
2022/06/11 06:48:34;;;;;;;9.23;6.00;;;;;;;27.04;56.47;100889.27;1618352;87;21245;-89
2022/06/11 06:51:02;;;;;;;10.35;5.85;;;;;;;27.16;57.76;100890.70;1601249;89;21095;-85
2022/06/11 06:53:31;;;;;;;11.43;5.35;;;;;;;27.28;57.37;100894.80;1599272;88;21146;-85
2022/06/11 06:55:58;;;;;;;19.37;6.17;;;;;;;27.38;57.93;100897.80;1599491;89;21036;-84
2022/06/11 06:58:25;;;;;;;9.95;5.85;;;;;;;27.50;58.29;100895.25;1599575;89;21614;-84
2022/06/11 07:00:55;;;;;;;10.63;5.50;;;;;;;27.62;58.98;100893.98;1599563;88;21160;-84
2022/06/11 07:03:22;;;;;;;14.60;5.75;;;;;;;27.75;59.57;100902.92;1599569;88;21025;-84
2022/06/11 07:05:49;;;;;;;9.23;6.10;;;;;;;27.85;57.76;100893.83;1598723;88;21136;-84
2022/06/11 07:08:18;;;;;;;10.75;5.58;;;;;;;27.95;57.25;100896.81;1593205;89;21134;-85
2022/06/11 07:10:53;;;;;;;13.10;5.45;;;;;;;28.04;54.42;100896.00;1593461;89;21136;-84
2022/06/11 07:13:22;;;;;;;6.75;5.47;;;;;;;28.12;56.28;100896.22;1592896;88;21827;-84
2022/06/11 07:15:55;;;;;;;10.32;5.20;;;;;;;28.19;56.07;100890.26;1627005;86;21052;-84
2022/06/11 07:18:49;;;;;;;15.75;5.78;;;;;;;28.27;55.64;100899.31;1598416;88;21124;-84
2022/06/11 07:21:23;;;;;;;7.20;5.62;;;;;;;28.33;56.35;100894.92;1593300;90;21636;-84
2022/06/11 07:24:00;;;;;;;9.28;5.67;;;;;;;28.40;56.25;100892.16;1593256;89;21184;-83
2022/06/11 07:26:34;;;;;;;7.33;5.10;;;;;;;28.49;56.00;100892.10;1593123;89;21191;-84
2022/06/11 07:29:09;;;;;;;7.78;4.95;;;;;;;28.59;53.04;100887.55;1591021;90;21020;-85
2022/06/11 07:31:39;;;;;;;9.55;4.67;;;;;;;28.69;52.14;100885.64;1587542;88;21062;-84
2022/06/11 07:34:07;;;;;;;16.87;5.83;;;;;;;28.77;53.67;100886.14;1627290;86;21519;-84
2022/06/11 07:36:35;;;;;;;5.87;4.40;;;;;;;28.87;50.49;100888.78;1627443;87;21021;-84
2022/06/11 07:39:02;;;;;;;12.65;3.52;;;;;;;28.92;50.71;100885.70;1627399;87;21874;-84
2022/06/11 07:41:30;;;;;;;11.68;3.92;;;;;;;29.00;50.57;100883.23;1632573;86;21058;-84
2022/06/11 07:43:58;;;;;;;11.28;4.40;;;;;;;29.09;49.22;100877.78;1663954;84;21569;-85
2022/06/11 07:46:25;;;;;;;6.95;4.00;;;;;;;29.18;47.48;100868.05;1674272;84;21116;-84
2022/06/11 07:48:52;;;;;;;11.10;4.95;;;;;;;29.27;46.91;100870.67;1673819;84;21060;-84
2022/06/11 07:51:20;;;;;;;10.65;5.30;;;;;;;29.35;48.23;100868.20;1649080;85;21181;-84
2022/06/11 07:53:49;;;;;;;10.90;4.90;;;;;;;29.44;48.03;100865.46;1644958;86;21104;-84
2022/06/11 07:56:19;;;;;;;9.90;4.83;;;;;;;29.57;47.01;100863.85;1645243;86;21036;-84
2022/06/11 07:58:49;;;;;;;14.47;8.83;;;;;;;29.67;46.44;100864.58;1650570;85;21038;-85
2022/06/11 08:01:17;;;;;;;16.82;11.53;;;;;;;29.69;43.43;100862.48;1652723;85;21557;-85
2022/06/11 08:03:44;;;;;;;13.35;9.35;;;;;;;29.70;41.12;100867.31;1643811;85;21151;-84
2022/06/11 08:06:12;;;;;;;13.30;10.95;;;;;;;29.69;43.52;100858.97;1652516;85;21603;-86
2022/06/11 08:08:39;;;;;;;13.90;9.45;;;;;;;29.72;42.65;100867.90;1651721;85;21511;-87
2022/06/11 08:11:08;;;;;;;9.75;7.90;;;;;;;29.75;43.92;100859.38;1636218;87;21074;-91
2022/06/11 08:13:36;;;;;;;15.98;14.00;;;;;;;29.81;42.13;100856.25;1636813;87;21091;-87
2022/06/11 08:16:04;;;;;;;18.98;14.13;;;;;;;29.92;37.19;100867.52;1611636;87;21149;-85
2022/06/11 08:18:33;;;;;;;20.90;13.48;;;;;;;29.97;35.32;100865.45;1648036;85;21090;-84
2022/06/11 08:21:00;;;;;;;19.57;15.13;;;;;;;30.03;36.22;100864.50;1633594;87;21050;-84
2022/06/11 08:23:28;;;;;;;18.75;15.72;;;;;;;30.09;34.76;100862.73;1638838;86;21127;-85
2022/06/11 08:25:56;;;;;;;18.75;14.30;;;;;;;30.15;33.64;100857.73;1610570;88;21079;-85
2022/06/11 08:28:24;;;;;;;16.95;12.75;;;;;;;30.20;37.80;100858.64;1582184;89;21156;-85
2022/06/11 08:30:52;;;;;;;17.92;13.25;;;;;;;30.29;38.50;100853.69;1582256;89;21056;-85
2022/06/11 08:33:20;;;;;;;18.05;13.88;;;;;;;30.36;38.47;100853.55;1591785;88;21056;-84
2022/06/11 08:35:48;;;;;;;19.15;15.93;;;;;;;30.39;38.19;100857.10;1607397;88;21122;-85
2022/06/11 08:38:16;;;;;;;64.15;20.57;;;;;;;30.41;38.97;100846.91;1607312;88;21148;-85
2022/06/11 08:40:50;;;;;;;26.07;21.93;;;;;;;30.48;35.81;100852.12;1607481;88;21149;-85
2022/06/11 08:43:33;;;;;;;32.00;21.02;;;;;;;30.57;36.38;100859.31;1608255;87;21532;-85
2022/06/11 08:46:13;;;;;;;22.80;15.70;;;;;;;30.67;35.53;100848.20;1607843;87;21110;-85
2022/06/11 08:49:17;;;;;;;16.50;12.82;;;;;;;30.74;33.58;100854.73;1636526;85;21082;-85
2022/06/11 08:52:02;;;;;;;17.48;11.38;;;;;;;30.78;31.72;100841.09;1635839;87;21067;-86
2022/06/11 08:54:37;;;;;;;15.93;10.98;;;;;;;30.88;34.86;100837.75;1622101;87;21211;-86
2022/06/11 08:57:52;;;;;;;13.98;9.90;;;;;;;30.95;34.65;100840.27;1628440;85;21069;-84
2022/06/11 09:00:30;;;;;;;10.08;9.08;;;;;;;31.03;35.96;100835.81;1647909;86;21513;-84
2022/06/11 09:03:28;;;;;;;9.48;8.50;;;;;;;31.08;34.81;100834.53;1633938;87;21066;-85
2022/06/11 09:06:06;;;;;;;10.85;8.75;;;;;;;31.08;35.09;100840.45;1628627;87;21492;-85
2022/06/11 09:09:03;;;;;;;10.18;8.25;;;;;;;31.08;35.90;100835.88;1627120;88;21923;-85
2022/06/11 09:12:23;;;;;;;8.08;7.10;;;;;;;31.10;34.95;100823.05;1627276;87;21577;-83
2022/06/11 09:15:18;;;;;;;11.18;8.43;;;;;;;31.17;34.90;100823.38;1628442;87;21029;-84
2022/06/11 09:18:09;;;;;;;8.85;6.90;;;;;;;31.20;34.35;100825.05;1590527;87;21557;-85
2022/06/11 09:21:03;;;;;;;8.93;6.97;;;;;;;31.23;35.93;100818.34;1569109;89;21589;-85
2022/06/11 09:24:05;;;;;;;12.13;7.22;;;;;;;31.31;36.34;100819.27;1596458;88;21168;-83
2022/06/11 09:26:43;;;;;;;9.10;6.50;;;;;;;31.38;34.17;100819.89;1602285;88;21586;-83
2022/06/11 09:29:25;;;;;;;7.70;6.97;;;;;;;31.47;34.21;100821.08;1603776;87;21158;-85
2022/06/11 09:32:24;;;;;;;9.58;7.37;;;;;;;31.56;31.62;100811.22;1581137;88;21048;-84
2022/06/11 09:35:05;;;;;;;8.53;7.30;;;;;;;31.57;34.54;100816.89;1578484;90;21476;-83
2022/06/11 09:37:49;;;;;;;11.93;7.62;;;;;;;31.59;33.75;100820.16;1577432;90;21303;-83
2022/06/11 09:40:34;;;;;;;9.33;7.12;;;;;;;31.63;33.51;100811.84;1545966;90;21181;-83
2022/06/11 09:43:41;;;;;;;8.20;5.55;;;;;;;31.70;31.32;100807.10;1586031;88;21088;-83
2022/06/11 09:46:33;;;;;;;11.50;5.75;;;;;;;31.74;33.22;100806.06;1602985;88;21076;-83
2022/06/11 09:49:34;;;;;;;8.20;6.78;;;;;;;31.86;33.61;100796.50;1603642;88;21538;-83
2022/06/11 09:52:13;;;;;;;;;;;;;;;31.86;33.61;100796.50;1581081;89;21145;-83
2022/06/11 09:55:10;;;;;;;6.62;5.33;;;;;;;31.94;31.99;100799.56;1582023;88;20195;-83
2022/06/11 09:58:18;;;;;;;6.17;5.47;;;;;;;31.97;34.55;100796.09;1578675;90;21615;-83
2022/06/11 10:00:56;;;;;;;6.33;5.72;;;;;;;32.01;35.31;100795.84;1571463;90;21102;-83
2022/06/11 10:03:35;;;;;;;8.55;5.70;;;;;;;32.06;33.89;100795.36;1573594;90;21061;-83
2022/06/11 10:06:14;;;;;;;9.60;5.78;;;;;;;32.04;34.41;100792.66;1578502;89;21449;-83
2022/06/11 10:08:48;;;;;;;12.70;5.65;;;;;;;32.10;34.00;100795.11;1596121;89;21104;-84
2022/06/11 10:11:35;;;;;;;9.05;5.83;;;;;;;32.23;35.00;100788.52;1596092;89;21085;-84
2022/06/11 10:14:37;;;;;;;7.17;5.67;;;;;;;32.23;35.00;100788.52;1595496;89;21461;-83
2022/06/11 10:17:36;;;;;;;7.15;5.70;;;;;;;32.30;35.63;100784.80;1597972;88;21123;-84
2022/06/11 10:20:26;;;;;;;7.55;5.80;;;;;;;32.43;32.84;100785.73;1597993;88;21546;-84
2022/06/11 10:23:25;;;;;;;6.50;5.20;;;;;;;32.43;32.84;100785.73;1597095;89;21527;-85
2022/06/11 10:26:06;;;;;;;7.62;5.33;;;;;;;32.49;33.65;100779.84;1597946;89;21087;-83
2022/06/11 10:28:39;;;;;;;;;;;;;;;32.56;32.13;100779.09;1600057;88;22177;-83
2022/06/11 10:31:27;;;;;;;8.13;5.45;;;;;;;32.64;32.69;100777.77;1573007;89;20200;-83
2022/06/11 10:34:12;;;;;;;8.00;5.08;;;;;;;32.63;31.71;100782.36;1569501;90;21877;-83
2022/06/11 10:37:01;;;;;;;6.30;5.37;;;;;;;32.66;30.24;100767.55;1582009;89;21054;-84
2022/06/11 10:39:45;;;;;;;7.25;5.28;;;;;;;32.66;30.24;100767.55;1582204;89;21118;-83
2022/06/11 10:42:24;;;;;;;6.87;4.80;;;;;;;32.71;31.52;100765.70;1542876;90;21592;-83
2022/06/11 10:44:54;;;;;;;5.72;5.00;;;;;;;32.71;31.52;100765.70;1603745;88;21076;-84
2022/06/11 10:47:38;;;;;;;7.43;5.10;;;;;;;32.76;32.16;100769.48;1611416;89;21150;-83
2022/06/11 10:50:17;;;;;;;10.90;5.75;;;;;;;32.85;31.11;100757.97;1615056;87;21062;-84
2022/06/11 10:53:08;;;;;;;7.20;5.53;;;;;;;32.85;31.11;100757.97;1606436;88;21646;-85
2022/06/11 10:55:46;;;;;;;5.70;4.78;;;;;;;32.90;30.38;100760.44;1606239;88;21076;-82
2022/06/11 10:58:40;;;;;;;13.98;4.92;;;;;;;32.86;32.73;100760.14;1607162;89;21074;-83
2022/06/11 11:01:26;;;;;;;10.40;5.30;;;;;;;32.85;33.78;100752.58;1608275;89;21599;-86
2022/06/11 11:04:01;;;;;;;7.40;4.92;;;;;;;32.84;34.35;100752.33;1604752;89;21567;-83
2022/06/11 11:06:34;;;;;;;7.72;5.65;;;;;;;32.92;32.35;100761.79;1610891;89;21109;-88
2022/06/11 11:09:15;;;;;;;7.95;5.47;;;;;;;32.92;32.35;100761.79;1598574;89;21646;-83
2022/06/11 11:11:48;;;;;;;6.95;5.45;;;;;;;32.98;31.08;100762.08;1595007;89;22124;-84
2022/06/11 11:14:29;;;;;;;12.37;6.15;;;;;;;33.03;30.17;100762.13;1593516;88;21823;-84
2022/06/11 11:17:04;;;;;;;6.25;5.10;;;;;;;33.02;29.24;100763.72;1617245;87;21079;-83
2022/06/11 11:19:37;;;;;;;8.48;4.90;;;;;;;32.94;29.67;100751.56;1610854;88;21037;-83
2022/06/11 11:22:18;;;;;;;6.00;4.85;;;;;;;32.99;31.08;100750.22;1610441;87;20992;-83
2022/06/11 11:24:53;;;;;;;6.53;4.37;;;;;;;33.10;31.24;100751.08;1614095;87;21151;-84
2022/06/11 11:27:41;;;;;;;37.70;6.70;;;;;;;33.18;32.26;100746.52;1606873;87;21611;-83
2022/06/11 11:30:22;;;;;;;5.28;4.78;;;;;;;33.26;31.56;100738.47;1612667;87;21017;-84
2022/06/11 11:32:50;;;;;;;12.78;5.37;;;;;;;33.36;29.56;100742.31;1615455;88;21048;-83
2022/06/11 11:35:26;;;;;;;6.65;4.87;;;;;;;33.32;29.32;100737.44;1618811;87;21057;-84
2022/06/11 11:38:06;;;;;;;5.72;5.12;;;;;;;33.33;32.36;100747.70;1618990;88;21554;-83
2022/06/11 11:40:48;;;;;;;6.10;5.50;;;;;;;33.37;28.20;100737.19;1615264;87;21655;-84
2022/06/11 11:43:17;;;;;;;7.60;5.00;;;;;;;33.37;28.20;100737.19;1628281;87;21101;-84
2022/06/11 11:45:59;;;;;;;7.05;4.97;;;;;;;33.45;30.55;100729.38;1595472;90;21525;-84
2022/06/11 11:48:36;;;;;;;6.28;4.60;;;;;;;33.50;31.16;100729.38;1633709;86;21064;-84
2022/06/11 11:51:09;;;;;;;8.98;5.12;;;;;;;33.48;29.87;100726.16;1606387;86;21001;-84
2022/06/11 11:53:42;;;;;;;7.15;4.62;;;;;;;33.48;31.25;100726.67;1602119;88;21844;-84
2022/06/11 11:56:37;;;;;;;6.40;4.80;;;;;;;33.48;30.77;100727.50;1569615;90;21766;-83
2022/06/11 11:59:22;;;;;;;29.27;7.22;;;;;;;33.47;31.14;100730.45;1597624;89;21086;-84